Time;durP1;ratioP1;P1;durP2;ratioP2;P2;SDS_P1;SDS_P2;PMS_P1;PMS_P2;Temp;Humidity;BMP_temperature;BMP_pressure;BME280_temperature;BME280_humidity;BME280_pressure;Samples;Min_cycle;Max_cycle;Signal;HPM_P1;HPM_P2
2021/09/17 00:02:21;;;;;;;4.38;3.30;;;12.10;99.90;;;;;;5010314;28;20076;-63
2021/09/17 00:04:51;;;;;;;5.15;2.65;;;12.10;99.90;;;;;;5010893;28;20128;-66
2021/09/17 00:07:18;;;;;;;4.90;2.88;;;12.10;99.90;;;;;;5010876;28;20125;-63
2021/09/17 00:09:45;;;;;;;6.18;3.00;;;12.20;99.90;;;;;;5009483;28;20461;-64
2021/09/17 00:12:13;;;;;;;7.20;2.70;;;12.20;99.90;;;;;;5009974;28;20213;-63
2021/09/17 00:14:40;;;;;;;8.20;3.35;;;12.20;99.90;;;;;;5010501;28;20423;-64
2021/09/17 00:17:08;;;;;;;5.25;3.80;;;12.20;99.90;;;;;;5010680;28;20480;-63
2021/09/17 00:19:35;;;;;;;4.22;3.25;;;12.10;99.90;;;;;;5009363;28;20399;-65
2021/09/17 00:22:02;;;;;;;3.10;2.80;;;12.20;99.90;;;;;;5010664;28;20073;-63
2021/09/17 00:24:29;;;;;;;3.50;2.60;;;12.20;99.90;;;;;;5010668;28;20527;-63
2021/09/17 00:26:56;;;;;;;3.45;2.38;;;12.20;99.90;;;;;;5010310;28;20071;-66
2021/09/17 00:29:23;;;;;;;3.35;2.92;;;12.20;99.90;;;;;;5010548;28;20041;-64
2021/09/17 00:31:51;;;;;;;2.88;2.40;;;12.20;99.90;;;;;;5008706;28;20038;-65
2021/09/17 00:34:18;;;;;;;2.78;2.03;;;12.20;99.90;;;;;;5010586;28;20057;-64
2021/09/17 00:36:45;;;;;;;3.85;2.67;;;12.20;99.90;;;;;;5010621;28;20049;-65
2021/09/17 00:39:13;;;;;;;4.43;2.35;;;12.20;99.90;;;;;;5010621;28;20097;-63
2021/09/17 00:41:41;;;;;;;4.13;2.35;;;12.20;99.90;;;;;;5008769;28;20463;-64
2021/09/17 00:44:09;;;;;;;4.60;3.00;;;12.20;99.90;;;;;;5010402;28;20376;-64
2021/09/17 00:46:37;;;;;;;5.10;2.90;;;12.20;99.90;;;;;;5010146;28;20065;-63
2021/09/17 00:49:04;;;;;;;2.22;2.03;;;12.10;99.90;;;;;;5010269;28;20096;-67
2021/09/17 00:51:31;;;;;;;2.92;2.15;;;12.10;99.90;;;;;;5008962;28;20340;-63
2021/09/17 00:53:58;;;;;;;2.95;2.22;;;12.10;99.90;;;;;;5010062;28;20042;-66
2021/09/17 00:56:25;;;;;;;1.73;1.63;;;12.10;99.90;;;;;;5009964;28;20100;-63
2021/09/17 00:58:52;;;;;;;2.90;1.92;;;12.10;99.90;;;;;;5010072;28;20050;-65
2021/09/17 01:01:45;;;;;;;2.50;2.10;;;12.10;99.90;;;;;;5011650;28;20045;-65
2021/09/17 01:04:12;;;;;;;2.85;2.22;;;12.10;99.90;;;;;;4991240;28;20500;-65
2021/09/17 01:06:40;;;;;;;2.72;1.90;;;12.10;99.90;;;;;;4994219;28;20043;-66
2021/09/17 01:09:07;;;;;;;3.47;2.22;;;12.10;99.90;;;;;;4994724;28;20050;-66
2021/09/17 01:11:35;;;;;;;3.70;1.92;;;12.10;99.90;;;;;;4992756;28;20407;-68
2021/09/17 01:14:03;;;;;;;1.67;1.58;;;12.10;99.90;;;;;;4993056;28;20053;-65
2021/09/17 01:16:30;;;;;;;3.03;2.10;;;12.10;99.90;;;;;;5009385;28;20046;-65
2021/09/17 01:18:58;;;;;;;4.40;2.35;;;12.10;99.90;;;;;;4994626;28;20050;-66
2021/09/17 01:21:25;;;;;;;2.45;2.05;;;12.10;99.90;;;;;;4994276;28;20508;-67
2021/09/17 01:23:52;;;;;;;2.03;1.85;;;12.10;99.90;;;;;;4992629;28;20393;-65
2021/09/17 01:26:20;;;;;;;4.45;2.47;;;12.10;99.90;;;;;;4994173;28;20105;-65
2021/09/17 01:28:47;;;;;;;4.75;2.15;;;12.10;99.90;;;;;;4994091;28;20054;-65
2021/09/17 01:31:14;;;;;;;1.83;1.73;;;12.10;99.90;;;;;;4993985;28;20054;-65
2021/09/17 01:33:41;;;;;;;2.65;1.80;;;12.10;99.90;;;;;;4992511;28;20049;-66
2021/09/17 01:36:10;;;;;;;2.42;1.48;;;12.10;99.90;;;;;;4993846;28;20093;-66
2021/09/17 01:38:41;;;;;;;2.38;2.17;;;12.10;99.90;;;;;;4994153;28;20116;-65
2021/09/17 01:41:09;;;;;;;2.22;2.13;;;12.10;99.90;;;;;;4994236;28;20409;-66
2021/09/17 01:43:36;;;;;;;1.60;1.40;;;12.10;99.90;;;;;;4992444;28;20109;-67
2021/09/17 01:46:04;;;;;;;1.50;1.40;;;12.10;99.90;;;;;;4993874;28;20046;-66
2021/09/17 01:48:31;;;;;;;3.90;1.98;;;12.20;99.90;;;;;;4993929;28;20092;-66
2021/09/17 01:50:59;;;;;;;2.28;1.73;;;12.20;99.90;;;;;;4993661;28;20497;-66
2021/09/17 01:53:26;;;;;;;1.90;1.60;;;12.20;99.90;;;;;;4993872;28;20175;-66
2021/09/17 01:55:53;;;;;;;6.75;1.50;;;12.20;99.90;;;;;;4992332;28;20042;-65
2021/09/17 01:58:20;;;;;;;2.78;1.50;;;12.20;99.90;;;;;;4993577;28;20050;-65
2021/09/17 02:00:47;;;;;;;1.58;1.48;;;12.20;99.90;;;;;;4993391;28;20476;-65
2021/09/17 02:03:14;;;;;;;1.73;1.17;;;12.20;99.90;;;;;;4993497;28;20600;-66
2021/09/17 02:05:43;;;;;;;2.35;1.48;;;12.20;99.90;;;;;;4991948;28;20049;-66
2021/09/17 02:08:10;;;;;;;1.98;1.38;;;12.20;99.90;;;;;;4993150;28;20042;-65
2021/09/17 02:10:37;;;;;;;1.52;1.30;;;12.20;99.90;;;;;;4993426;28;20437;-66
2021/09/17 02:13:05;;;;;;;2.05;1.90;;;12.20;99.90;;;;;;4993505;28;20523;-66
2021/09/17 02:15:32;;;;;;;1.52;1.42;;;12.10;99.90;;;;;;4990825;28;20046;-66
2021/09/17 02:17:59;;;;;;;1.80;1.35;;;12.20;99.90;;;;;;4993218;28;20046;-66
2021/09/17 02:20:27;;;;;;;2.85;1.40;;;12.10;99.90;;;;;;4993178;28;20050;-68
2021/09/17 02:22:54;;;;;;;1.23;1.13;;;12.20;99.90;;;;;;4993267;28;20054;-66
2021/09/17 02:25:21;;;;;;;2.35;1.75;;;12.20;99.90;;;;;;4993121;28;20045;-67
2021/09/17 02:27:48;;;;;;;3.08;1.50;;;12.10;99.90;;;;;;4991672;28;20109;-65
2021/09/17 02:30:15;;;;;;;1.48;1.23;;;12.20;99.90;;;;;;4992823;28;20539;-66
2021/09/17 02:32:43;;;;;;;1.42;1.33;;;12.10;99.90;;;;;;4992787;28;20050;-66
2021/09/17 02:35:11;;;;;;;3.05;1.70;;;12.10;99.90;;;;;;4993120;28;20051;-65
2021/09/17 02:37:39;;;;;;;2.67;1.55;;;12.10;99.90;;;;;;4991499;28;20093;-65
2021/09/17 02:40:12;;;;;;;2.15;1.33;;;12.10;99.90;;;;;;4992805;28;20105;-66
2021/09/17 02:42:40;;;;;;;2.33;1.75;;;12.20;99.90;;;;;;4992929;28;20400;-66
2021/09/17 02:45:10;;;;;;;1.52;1.42;;;12.10;99.90;;;;;;4992776;28;20093;-68
2021/09/17 02:47:38;;;;;;;1.92;1.13;;;12.10;99.90;;;;;;4990938;28;20042;-66
2021/09/17 02:50:06;;;;;;;3.15;1.65;;;12.10;99.90;;;;;;4992233;28;20039;-67
2021/09/17 02:52:33;;;;;;;1.58;1.42;;;12.10;99.90;;;;;;4992447;28;20050;-65
2021/09/17 02:55:02;;;;;;;2.38;1.45;;;12.10;99.90;;;;;;4992611;28;20058;-68
2021/09/17 02:57:29;;;;;;;2.38;1.30;;;12.10;99.90;;;;;;4991236;28;20043;-67
2021/09/17 02:59:56;;;;;;;3.53;1.55;;;12.10;99.90;;;;;;4992565;28;20046;-65
2021/09/17 03:02:23;;;;;;;1.50;1.33;;;12.10;99.90;;;;;;4992487;28;20052;-66
2021/09/17 03:04:50;;;;;;;1.33;1.23;;;12.10;99.90;;;;;;4992449;28;20054;-65
2021/09/17 03:07:17;;;;;;;1.27;1.15;;;12.10;99.90;;;;;;4992428;28;20049;-66
2021/09/17 03:09:44;;;;;;;2.25;1.38;;;12.10;99.90;;;;;;4990784;28;20054;-67
2021/09/17 03:12:11;;;;;;;1.30;1.20;;;12.10;99.90;;;;;;4992201;28;20034;-68
2021/09/17 03:14:38;;;;;;;2.28;1.20;;;12.10;99.90;;;;;;4992196;28;20104;-66
2021/09/17 03:17:06;;;;;;;1.40;1.17;;;12.10;99.90;;;;;;4992409;28;20436;-68
2021/09/17 03:19:33;;;;;;;1.15;1.05;;;12.10;99.90;;;;;;4990818;28;20075;-65
2021/09/17 03:22:00;;;;;;;3.00;1.70;;;12.10;99.90;;;;;;4992074;28;20138;-65
2021/09/17 03:24:28;;;;;;;1.10;1.00;;;12.10;99.90;;;;;;4991915;28;20046;-66
2021/09/17 03:26:55;;;;;;;2.08;1.08;;;12.10;99.90;;;;;;4991809;28;20042;-66
2021/09/17 03:29:22;;;;;;;3.15;1.48;;;12.20;99.90;;;;;;4992002;28;20057;-65
2021/09/17 03:31:50;;;;;;;1.77;1.33;;;12.10;99.90;;;;;;4990714;28;20476;-66
2021/09/17 03:34:17;;;;;;;1.45;1.23;;;12.10;99.90;;;;;;4991832;28;20042;-65
2021/09/17 03:36:44;;;;;;;3.10;1.77;;;12.10;99.90;;;;;;4991952;28;20096;-67
2021/09/17 03:39:14;;;;;;;1.70;1.52;;;12.20;99.90;;;;;;4991863;28;20050;-67
2021/09/17 03:41:45;;;;;;;1.40;1.17;;;12.20;99.90;;;;;;4990484;28;20063;-65
2021/09/17 03:44:14;;;;;;;1.98;1.70;;;12.10;99.90;;;;;;4991696;28;20054;-65
2021/09/17 03:46:41;;;;;;;1.63;1.35;;;12.20;99.90;;;;;;4991544;28;20085;-65
2021/09/17 03:49:09;;;;;;;2.00;1.17;;;12.20;99.90;;;;;;4991434;28;20042;-65
2021/09/17 03:51:36;;;;;;;2.85;1.35;;;12.20;99.90;;;;;;4990365;28;20050;-67
2021/09/17 03:54:03;;;;;;;2.55;2.00;;;12.20;99.90;;;;;;4991403;28;20418;-66
2021/09/17 03:56:30;;;;;;;2.35;2.15;;;12.20;99.90;;;;;;4991514;28;20050;-66
2021/09/17 03:58:57;;;;;;;1.83;1.33;;;12.20;99.90;;;;;;4991445;28;20058;-65
2021/09/17 04:01:24;;;;;;;1.50;1.40;;;12.20;99.90;;;;;;4991507;28;20050;-66
2021/09/17 04:03:52;;;;;;;2.72;2.00;;;12.20;99.90;;;;;;4989717;28;20050;-65
2021/09/17 04:06:18;;;;;;;2.42;2.22;;;12.20;99.90;;;;;;4991400;28;20512;-65
2021/09/17 04:08:45;;;;;;;2.88;2.53;;;12.20;99.90;;;;;;4990884;28;20065;-65
2021/09/17 04:11:12;;;;;;;2.92;1.73;;;12.10;99.90;;;;;;4991007;28;20067;-66
2021/09/17 04:13:39;;;;;;;3.67;2.65;;;12.20;99.90;;;;;;4989892;28;20050;-65
2021/09/17 04:16:06;;;;;;;2.90;2.10;;;12.20;99.90;;;;;;4991129;28;20440;-65
2021/09/17 04:18:33;;;;;;;2.75;2.50;;;12.20;99.90;;;;;;4990963;28;20090;-65
2021/09/17 04:21:00;;;;;;;4.57;2.60;;;12.20;99.90;;;;;;4991072;28;20054;-66
2021/09/17 04:23:27;;;;;;;3.63;2.80;;;12.20;99.90;;;;;;4989711;28;20054;-68
2021/09/17 04:25:54;;;;;;;6.22;3.88;;;12.20;99.90;;;;;;4990721;28;20053;-66
2021/09/17 04:28:21;;;;;;;5.47;2.65;;;12.10;99.90;;;;;;4990824;28;20054;-66
2021/09/17 04:30:48;;;;;;;4.43;3.22;;;12.10;99.90;;;;;;4990829;28;20054;-65
2021/09/17 04:33:16;;;;;;;3.30;2.45;;;12.10;99.90;;;;;;4990615;28;20054;-65
2021/09/17 04:35:43;;;;;;;6.22;3.20;;;12.10;99.90;;;;;;4989374;28;20204;-67
2021/09/17 04:38:14;;;;;;;6.75;3.20;;;12.10;99.90;;;;;;4989519;28;20519;-66
2021/09/17 04:40:42;;;;;;;4.03;3.15;;;12.10;99.90;;;;;;4990749;28;20061;-65
2021/09/17 04:43:10;;;;;;;3.42;2.40;;;12.10;99.90;;;;;;4990468;28;20435;-66
2021/09/17 04:45:37;;;;;;;5.68;2.55;;;12.10;99.90;;;;;;4989367;28;20046;-65
2021/09/17 04:48:12;;;;;;;3.05;2.30;;;12.10;99.90;;;;;;4990369;28;20058;-65
2021/09/17 04:50:40;;;;;;;2.83;2.40;;;12.20;99.90;;;;;;4990607;28;20469;-67
2021/09/17 04:53:07;;;;;;;6.93;3.85;;;12.20;99.90;;;;;;4990752;28;20058;-65
2021/09/17 04:55:35;;;;;;;4.13;2.72;;;12.20;99.90;;;;;;4989340;28;20051;-65
2021/09/17 04:58:03;;;;;;;6.47;3.45;;;12.10;99.90;;;;;;4990706;28;20476;-65
2021/09/17 05:00:31;;;;;;;4.05;2.67;;;12.10;99.90;;;;;;4990757;28;20109;-65
2021/09/17 05:02:58;;;;;;;3.28;2.63;;;12.20;99.90;;;;;;4990255;28;20149;-67
2021/09/17 05:05:26;;;;;;;10.38;3.72;;;12.20;99.90;;;;;;4990718;28;20407;-66
2021/09/17 05:07:53;;;;;;;3.83;2.65;;;12.20;99.90;;;;;;4988950;28;20046;-65
2021/09/17 05:10:21;;;;;;;7.32;4.38;;;12.20;99.90;;;;;;4990493;28;20043;-66
2021/09/17 05:12:48;;;;;;;6.75;3.35;;;12.20;99.90;;;;;;4990385;28;20038;-67
2021/09/17 05:15:16;;;;;;;5.65;2.92;;;12.20;99.90;;;;;;4990446;28;20502;-65
2021/09/17 05:17:43;;;;;;;6.72;2.83;;;12.20;99.90;;;;;;4988815;28;20051;-65
2021/09/17 05:20:11;;;;;;;5.30;2.80;;;12.20;99.90;;;;;;4991583;28;20061;-65
2021/09/17 05:22:38;;;;;;;4.75;2.58;;;12.20;99.90;;;;;;4990510;28;20082;-66
2021/09/17 05:25:06;;;;;;;5.50;3.60;;;12.20;99.90;;;;;;4990508;28;20057;-65
2021/09/17 05:27:33;;;;;;;5.55;4.35;;;12.20;99.90;;;;;;4989064;28;20046;-65
2021/09/17 05:30:00;;;;;;;4.07;3.40;;;12.20;99.90;;;;;;4990407;28;20050;-65
2021/09/17 05:32:27;;;;;;;4.00;3.20;;;12.20;99.90;;;;;;4990283;28;20042;-66
2021/09/17 05:34:54;;;;;;;13.73;3.92;;;12.20;99.90;;;;;;4990363;28;20038;-66
2021/09/17 05:37:21;;;;;;;4.53;3.10;;;12.20;99.90;;;;;;4990592;28;20046;-65
2021/09/17 05:39:48;;;;;;;6.78;3.53;;;12.20;99.90;;;;;;4989092;28;20453;-65
2021/09/17 05:42:15;;;;;;;6.30;3.35;;;12.20;99.90;;;;;;4990362;28;20060;-66
2021/09/17 05:44:42;;;;;;;5.95;3.97;;;12.20;99.90;;;;;;4990538;28;20042;-65
2021/09/17 05:47:09;;;;;;;6.15;3.40;;;12.20;99.90;;;;;;4990291;28;20049;-66
2021/09/17 05:49:36;;;;;;;3.72;3.03;;;12.20;99.90;;;;;;4991254;28;20054;-66
2021/09/17 05:52:04;;;;;;;10.00;4.57;;;12.20;99.90;;;;;;4993753;28;20401;-65
2021/09/17 05:54:32;;;;;;;6.38;3.15;;;12.20;99.90;;;;;;4993741;28;20050;-66
2021/09/17 05:57:02;;;;;;;5.10;2.78;;;12.20;99.90;;;;;;4993608;28;20188;-66
2021/09/17 05:59:29;;;;;;;3.70;3.10;;;12.20;99.90;;;;;;4992229;28;20054;-66
2021/09/17 06:01:56;;;;;;;5.72;3.08;;;12.20;99.90;;;;;;4993163;28;20079;-65
2021/09/17 06:04:24;;;;;;;7.28;3.45;;;12.20;99.90;;;;;;4993461;28;20405;-67
2021/09/17 06:06:51;;;;;;;6.65;3.70;;;12.20;99.90;;;;;;4993520;28;20140;-66
2021/09/17 06:09:18;;;;;;;4.97;2.85;;;12.20;99.90;;;;;;4993383;28;20500;-65
2021/09/17 06:11:45;;;;;;;3.90;3.45;;;12.20;99.90;;;;;;4991997;28;20038;-67
2021/09/17 06:14:12;;;;;;;35.20;4.20;;;12.20;99.90;;;;;;5008261;28;20057;-65
2021/09/17 06:16:39;;;;;;;5.88;3.25;;;12.20;99.90;;;;;;4993313;28;20468;-66
2021/09/17 06:19:06;;;;;;;5.07;2.65;;;12.30;99.90;;;;;;4993181;28;20096;-66
2021/09/17 06:21:34;;;;;;;4.10;2.70;;;12.20;99.90;;;;;;4991779;28;20057;-65
2021/09/17 06:24:02;;;;;;;8.25;3.25;;;12.20;99.90;;;;;;4993157;28;20097;-65
2021/09/17 06:26:32;;;;;;;5.95;3.50;;;12.30;99.90;;;;;;4993193;28;20539;-66
2021/09/17 06:29:02;;;;;;;5.63;2.53;;;12.30;99.90;;;;;;4993061;28;20054;-65
2021/09/17 06:31:29;;;;;;;5.68;3.05;;;12.30;99.90;;;;;;4991728;28;20429;-66
2021/09/17 06:33:56;;;;;;;3.40;2.55;;;12.30;99.90;;;;;;4992745;28;20031;-66
2021/09/17 06:36:23;;;;;;;4.40;2.63;;;12.30;99.90;;;;;;4992681;28;20046;-65
2021/09/17 06:38:51;;;;;;;7.50;3.10;;;12.30;99.90;;;;;;4993014;28;20436;-65
2021/09/17 06:41:18;;;;;;;5.22;3.22;;;12.30;99.90;;;;;;4992783;28;20505;-65
2021/09/17 06:43:45;;;;;;;3.50;2.45;;;12.30;99.90;;;;;;4991370;28;20050;-66
2021/09/17 06:46:12;;;;;;;7.18;4.05;;;12.30;99.90;;;;;;4992592;28;20042;-65
2021/09/17 06:48:40;;;;;;;3.70;2.42;;;12.30;99.90;;;;;;4992509;28;20061;-66
2021/09/17 06:51:07;;;;;;;7.22;3.00;;;12.30;99.90;;;;;;4992655;28;20092;-66
2021/09/17 06:53:34;;;;;;;4.97;3.33;;;12.30;99.90;;;;;;4990970;28;20038;-66
2021/09/17 06:56:01;;;;;;;6.65;2.60;;;12.40;99.90;;;;;;5007112;28;20104;-65
2021/09/17 06:58:31;;;;;;;4.97;3.78;;;12.40;99.90;;;;;;4992415;28;20121;-66
2021/09/17 07:01:01;;;;;;;3.83;2.72;;;12.40;99.90;;;;;;4943874;28;20369;-66
2021/09/17 07:03:29;;;;;;;8.77;4.10;;;12.40;99.90;;;;;;4969898;28;20046;-67
2021/09/17 07:05:58;;;;;;;4.55;2.65;;;12.40;99.90;;;;;;4993380;28;20057;-67
2021/09/17 07:08:25;;;;;;;7.95;3.10;;;12.30;99.90;;;;;;4993714;28;20055;-68
2021/09/17 07:11:27;;;;;;;5.40;3.10;;;12.40;99.90;;;;;;4985632;28;20046;-67
2021/09/17 07:13:54;;;;;;;5.22;4.28;;;12.40;99.90;;;;;;4991566;28;20070;-68
2021/09/17 07:16:25;;;;;;;7.45;4.43;;;12.40;99.90;;;;;;5007666;28;20046;-67
2021/09/17 07:19:07;;;;;;;7.07;2.80;;;12.40;99.90;;;;;;5007141;28;20050;-66
2021/09/17 07:21:34;;;;;;;4.68;3.85;;;12.40;99.90;;;;;;4960299;28;20088;-68
2021/09/17 07:24:08;;;;;;;5.65;3.20;;;12.40;99.90;;;;;;4948549;28;20065;-67
2021/09/17 07:26:36;;;;;;;6.20;3.95;;;12.40;99.90;;;;;;5003400;28;20077;-67
2021/09/17 07:29:03;;;;;;;6.55;3.17;;;12.40;99.90;;;;;;4996611;28;20494;-65
2021/09/17 07:31:41;;;;;;;3.90;2.90;;;12.50;99.90;;;;;;4993295;28;20043;-68
2021/09/17 07:34:21;;;;;;;6.53;3.22;;;12.50;99.90;;;;;;5007662;28;20039;-66
2021/09/17 07:36:50;;;;;;;5.50;2.72;;;12.50;99.90;;;;;;4994400;28;20070;-66
2021/09/17 07:39:23;;;;;;;7.15;2.80;;;12.50;99.90;;;;;;4995026;28;20058;-67
2021/09/17 07:41:53;;;;;;;4.78;2.78;;;12.60;99.90;;;;;;4992633;28;20073;-66
2021/09/17 07:44:34;;;;;;;5.50;3.00;;;12.60;99.90;;;;;;4994578;28;20046;-66
2021/09/17 07:52:10;;;;;;;4.00;2.42;;;12.60;99.90;;;;;;4970659;28;20091;-66
2021/09/17 07:55:07;;;;;;;3.85;3.10;;;12.60;99.90;;;;;;4999627;28;20089;-66
2021/09/17 07:57:34;;;;;;;;;;;12.60;99.90;;;;;;4946071;28;20050;-68
2021/09/17 08:00:07;;;;;;;3.05;2.60;;;12.60;99.90;;;;;;4974791;28;20326;-66
2021/09/17 08:07:17;;;;;;;6.13;3.58;;;12.50;99.90;;;;;;4985675;28;20444;-66
2021/09/17 08:10:13;;;;;;;4.93;2.38;;;12.50;99.90;;;;;;4974832;28;20030;-66
2021/09/17 08:13:05;;;;;;;6.78;2.65;;;12.50;99.90;;;;;;4977853;28;20061;-66
2021/09/17 08:15:40;;;;;;;4.10;3.00;;;12.50;99.90;;;;;;4992122;28;20062;-66
2021/09/17 08:18:57;;;;;;;4.60;1.92;;;12.50;99.90;;;;;;4977698;28;20073;-66
2021/09/17 08:22:12;;;;;;;4.55;2.35;;;12.50;99.90;;;;;;4928934;28;20031;-66
2021/09/17 08:24:39;;;;;;;7.70;3.30;;;12.50;99.90;;;;;;4995466;28;20046;-69
2021/09/17 08:27:06;;;;;;;5.45;2.55;;;12.50;99.90;;;;;;4970394;28;20054;-66
2021/09/17 08:29:46;;;;;;;5.05;3.30;;;12.50;99.90;;;;;;4925149;28;20069;-67
2021/09/17 08:32:24;;;;;;;3.58;2.80;;;12.60;99.90;;;;;;4975121;28;20445;-66
2021/09/17 08:35:01;;;;;;;9.07;3.25;;;12.60;99.90;;;;;;4988853;28;20336;-66
2021/09/17 08:37:28;;;;;;;6.90;3.17;;;12.60;99.90;;;;;;4988897;28;20049;-67
2021/09/17 08:39:55;;;;;;;8.52;2.95;;;12.50;99.90;;;;;;4990391;28;20042;-67
2021/09/17 08:42:23;;;;;;;3.40;2.28;;;12.60;99.90;;;;;;4990381;28;20056;-67
2021/09/17 08:44:51;;;;;;;7.38;3.45;;;12.60;99.90;;;;;;5005434;28;20061;-67
2021/09/17 08:47:18;;;;;;;6.13;2.78;;;12.50;99.90;;;;;;4990419;28;20070;-67
2021/09/17 08:49:46;;;;;;;5.85;3.05;;;12.50;99.90;;;;;;4988998;28;20057;-67
2021/09/17 08:52:13;;;;;;;3.42;2.38;;;12.60;99.90;;;;;;4990482;28;20457;-68
2021/09/17 08:54:41;;;;;;;6.45;2.97;;;12.60;99.90;;;;;;4990666;28;20077;-66
2021/09/17 08:57:09;;;;;;;5.90;2.67;;;12.60;99.90;;;;;;4990527;28;20042;-69
2021/09/17 08:59:36;;;;;;;12.88;4.05;;;12.60;99.90;;;;;;4988758;28;20550;-67
2021/09/17 09:02:28;;;;;;;3.97;2.65;;;12.70;99.90;;;;;;4989769;28;20042;-66
2021/09/17 09:05:06;;;;;;;3.60;2.65;;;12.70;99.90;;;;;;4988845;28;20069;-67
2021/09/17 09:07:38;;;;;;;6.47;4.32;;;12.70;99.90;;;;;;4985693;28;20054;-68
2021/09/17 09:10:07;;;;;;;3.38;2.95;;;12.70;99.90;;;;;;4987066;28;20425;-69
2021/09/17 09:12:34;;;;;;;4.50;2.85;;;12.70;99.90;;;;;;4987261;28;20456;-67
2021/09/17 09:15:17;;;;;;;5.55;4.25;;;12.70;99.90;;;;;;4987331;28;20535;-67
2021/09/17 09:17:45;;;;;;;7.68;4.10;;;12.80;99.90;;;;;;4985912;28;20605;-66
2021/09/17 09:20:34;;;;;;;10.77;4.18;;;12.80;99.90;;;;;;4987143;28;20046;-69
2021/09/17 09:23:17;;;;;;;5.10;3.13;;;12.80;99.90;;;;;;4987391;28;20045;-66
2021/09/17 09:25:57;;;;;;;7.85;4.60;;;12.80;99.90;;;;;;4989300;28;20062;-67
2021/09/17 09:28:27;;;;;;;4.90;3.85;;;12.80;99.90;;;;;;4991012;28;20050;-68
2021/09/17 09:30:57;;;;;;;7.35;4.55;;;12.80;99.90;;;;;;4990624;28;20104;-69
2021/09/17 09:33:33;;;;;;;4.70;3.10;;;12.80;99.90;;;;;;4991310;28;20046;-69
2021/09/17 09:36:21;;;;;;;4.80;3.15;;;12.70;99.90;;;;;;4991226;28;20435;-66
2021/09/17 09:38:53;;;;;;;5.13;3.22;;;12.80;99.90;;;;;;4993591;28;20512;-66
2021/09/17 09:41:33;;;;;;;3.75;2.72;;;12.70;99.90;;;;;;4993578;28;20069;-66
2021/09/17 09:44:00;;;;;;;;;;;12.70;99.90;;;;;;4992917;28;20061;-68
2021/09/17 09:46:37;;;;;;;4.93;2.67;;;12.70;99.90;;;;;;4993672;28;19922;-67
2021/09/17 09:49:06;;;;;;;6.97;3.38;;;12.70;99.90;;;;;;4993619;28;20046;-67
2021/09/17 09:51:39;;;;;;;5.80;2.90;;;12.70;99.90;;;;;;4992054;28;20100;-66
2021/09/17 09:54:08;;;;;;;5.80;3.00;;;12.70;99.90;;;;;;4993553;28;20073;-66
2021/09/17 09:56:37;;;;;;;5.28;2.95;;;12.70;99.90;;;;;;4993399;28;20043;-68
2021/09/17 09:59:07;;;;;;;5.55;3.33;;;12.60;99.90;;;;;;4993326;28;20054;-67
2021/09/17 10:01:37;;;;;;;3.83;2.92;;;12.60;99.90;;;;;;4991787;28;20050;-67
2021/09/17 10:04:07;;;;;;;8.35;3.08;;;12.60;99.90;;;;;;4993240;28;20046;-68
2021/09/17 10:06:39;;;;;;;3.08;2.35;;;12.60;99.90;;;;;;4993491;28;20428;-67
2021/09/17 10:09:09;;;;;;;6.13;3.15;;;12.60;99.90;;;;;;4993324;28;20050;-73
2021/09/17 10:11:38;;;;;;;5.03;3.35;;;12.60;99.90;;;;;;4991554;28;20042;-67
2021/09/17 10:14:10;;;;;;;8.20;3.55;;;12.60;99.90;;;;;;4992269;28;20365;-68
2021/09/17 10:16:38;;;;;;;4.93;3.65;;;12.60;99.90;;;;;;4991729;28;20058;-67
2021/09/17 10:19:07;;;;;;;5.57;3.35;;;12.50;99.90;;;;;;4993002;28;20056;-69
2021/09/17 10:21:49;;;;;;;3.92;2.40;;;12.60;99.90;;;;;;4991581;28;20463;-66
2021/09/17 10:24:28;;;;;;;3.75;3.08;;;12.60;99.90;;;;;;4992957;28;20050;-66
2021/09/17 10:27:20;;;;;;;4.63;4.18;;;12.60;99.90;;;;;;4993080;28;20047;-67
2021/09/17 10:29:58;;;;;;;6.72;3.38;;;12.60;99.90;;;;;;4988395;28;22729;-71
2021/09/17 10:32:32;;;;;;;6.30;4.35;;;12.60;99.90;;;;;;4992656;28;20053;-68
2021/09/17 10:35:16;;;;;;;7.25;5.13;;;12.60;99.90;;;;;;4991890;28;20042;-69
2021/09/17 10:38:02;;;;;;;5.70;3.78;;;12.60;99.90;;;;;;4991355;28;20046;-67
2021/09/17 10:40:43;;;;;;;4.10;3.63;;;12.60;99.90;;;;;;4992750;28;20048;-68
2021/09/17 10:43:10;;;;;;;6.93;4.45;;;12.60;99.90;;;;;;4992778;28;20054;-67
2021/09/17 10:45:45;;;;;;;4.50;4.10;;;12.60;99.90;;;;;;4991165;28;20405;-70
2021/09/17 10:48:21;;;;;;;3.78;3.40;;;12.60;99.90;;;;;;4992391;28;20129;-66
2021/09/17 10:50:54;;;;;;;4.70;3.22;;;12.60;99.90;;;;;;4992296;28;20438;-65
2021/09/17 10:53:40;;;;;;;6.82;3.53;;;12.60;99.90;;;;;;4992606;28;20495;-68
2021/09/17 10:56:13;;;;;;;4.95;2.97;;;12.50;99.90;;;;;;4991534;28;20041;-68
2021/09/17 10:58:46;;;;;;;6.13;2.88;;;12.50;99.90;;;;;;4992370;28;20164;-66
2021/09/17 11:01:15;;;;;;;4.70;4.07;;;12.50;99.90;;;;;;4992238;28;20556;-68
2021/09/17 11:03:46;;;;;;;8.38;4.68;;;12.50;99.90;;;;;;4990776;28;20073;-66
2021/09/17 11:06:21;;;;;;;6.57;3.65;;;12.50;99.90;;;;;;4992085;28;20452;-66
2021/09/17 11:08:52;;;;;;;6.93;4.40;;;12.60;99.90;;;;;;4992183;28;20062;-67
2021/09/17 11:11:42;;;;;;;6.63;4.35;;;12.50;99.90;;;;;;4992002;28;20054;-67
2021/09/17 11:14:09;;;;;;;7.50;4.20;;;12.60;99.90;;;;;;4990789;28;20069;-66
2021/09/17 11:16:36;;;;;;;7.85;4.55;;;12.50;99.90;;;;;;4991685;28;20053;-66
2021/09/17 11:19:07;;;;;;;6.55;3.95;;;12.60;99.90;;;;;;4991786;28;20359;-66
2021/09/17 11:21:42;;;;;;;7.32;4.85;;;12.60;99.90;;;;;;4990276;28;20170;-66
2021/09/17 11:24:21;;;;;;;5.95;4.32;;;12.60;99.90;;;;;;4991799;28;20084;-68
2021/09/17 11:26:50;;;;;;;5.57;4.25;;;12.50;99.90;;;;;;4991722;28;20065;-67
2021/09/17 11:29:19;;;;;;;4.28;3.58;;;12.60;99.90;;;;;;4991333;28;20063;-66
2021/09/17 11:31:51;;;;;;;5.43;3.72;;;12.60;99.90;;;;;;4989996;28;20103;-66
2021/09/17 11:34:23;;;;;;;6.50;4.18;;;12.50;99.90;;;;;;4991731;28;20034;-66
2021/09/17 11:36:53;;;;;;;7.88;4.13;;;12.60;99.90;;;;;;4991438;28;20043;-66
2021/09/17 11:39:27;;;;;;;5.53;4.22;;;12.60;99.90;;;;;;4991787;28;20081;-69
2021/09/17 11:42:14;;;;;;;10.57;4.07;;;12.60;99.90;;;;;;4990236;28;20046;-67
2021/09/17 11:44:53;;;;;;;7.38;4.63;;;12.60;99.90;;;;;;4991700;28;20034;-71
2021/09/17 11:47:31;;;;;;;4.35;3.95;;;12.50;99.90;;;;;;4991349;28;20457;-69
2021/09/17 11:50:08;;;;;;;13.45;4.57;;;12.50;99.90;;;;;;4990134;28;20093;-69
2021/09/17 11:52:45;;;;;;;6.43;3.97;;;12.50;99.90;;;;;;4991162;28;20050;-65
2021/09/17 11:55:15;;;;;;;6.63;4.13;;;12.50;99.90;;;;;;4991260;28;20120;-66
2021/09/17 11:57:47;;;;;;;8.38;3.45;;;12.50;99.90;;;;;;4990084;28;20050;-67
2021/09/17 12:00:19;;;;;;;9.50;4.15;;;12.40;99.90;;;;;;4991576;28;20364;-67
2021/09/17 12:02:49;;;;;;;6.00;4.13;;;12.40;99.90;;;;;;4990908;28;20129;-66
2021/09/17 12:05:24;;;;;;;10.40;4.07;;;12.40;99.90;;;;;;4991495;28;20042;-65
2021/09/17 12:07:52;;;;;;;5.63;4.07;;;12.40;99.90;;;;;;4989711;28;20057;-66
2021/09/17 12:10:23;;;;;;;6.00;3.72;;;12.40;99.90;;;;;;4991082;28;20108;-67
2021/09/17 12:12:57;;;;;;;9.27;4.20;;;12.40;99.90;;;;;;4991102;28;20085;-66
2021/09/17 12:15:28;;;;;;;4.30;3.90;;;12.40;99.90;;;;;;4991175;28;20451;-71
2021/09/17 12:18:00;;;;;;;6.93;3.35;;;12.50;99.90;;;;;;4989728;28;20039;-67
2021/09/17 12:20:55;;;;;;;7.50;3.15;;;12.40;99.90;;;;;;4990837;28;20050;-66
2021/09/17 12:23:43;;;;;;;7.13;4.05;;;12.40;99.90;;;;;;4989548;28;20132;-66
2021/09/17 12:26:15;;;;;;;7.22;3.75;;;12.40;99.90;;;;;;4990664;28;20054;-67
2021/09/17 12:28:46;;;;;;;4.97;3.88;;;12.50;99.90;;;;;;4990962;28;20420;-66
2021/09/17 12:31:31;;;;;;;7.47;3.42;;;12.50;99.90;;;;;;4990577;28;20392;-67
2021/09/17 12:34:12;;;;;;;6.07;3.85;;;12.50;99.90;;;;;;4989525;28;20133;-69
2021/09/17 12:36:39;;;;;;;6.18;3.90;;;12.50;99.90;;;;;;4990632;28;20054;-69
2021/09/17 12:39:09;;;;;;;5.43;4.93;;;12.60;99.90;;;;;;4990396;28;20046;-68
2021/09/17 12:41:37;;;;;;;6.53;3.33;;;12.60;99.90;;;;;;4989195;28;20509;-69
2021/09/17 12:44:16;;;;;;;5.80;3.47;;;12.60;99.90;;;;;;4990280;28;20038;-66
2021/09/17 12:46:47;;;;;;;4.95;4.05;;;12.70;99.90;;;;;;4990630;28;20108;-69
2021/09/17 12:49:17;;;;;;;6.60;4.18;;;12.70;99.90;;;;;;4990637;28;20078;-66
2021/09/17 12:51:55;;;;;;;6.47;3.50;;;12.80;99.90;;;;;;4989080;28;20042;-67
2021/09/17 12:54:32;;;;;;;8.02;4.32;;;12.80;99.90;;;;;;4990687;28;20153;-66
2021/09/17 12:57:16;;;;;;;7.90;3.88;;;12.90;99.90;;;;;;4990489;28;20070;-70
2021/09/17 13:00:08;;;;;;;8.80;5.10;;;12.90;99.90;;;;;;4992202;28;20042;-70
2021/09/17 13:02:35;;;;;;;4.18;3.22;;;12.90;99.90;;;;;;4994348;28;20038;-69
2021/09/17 13:05:06;;;;;;;6.40;3.42;;;12.90;99.90;;;;;;4994563;28;20404;-67
2021/09/17 13:07:34;;;;;;;6.97;3.43;;;12.90;99.90;;;;;;4993053;28;20529;-67
2021/09/17 13:10:06;;;;;;;6.57;4.93;;;13.00;99.90;;;;;;4994210;28;20138;-68
2021/09/17 13:12:33;;;;;;;5.13;3.65;;;13.00;99.90;;;;;;4994307;28;20073;-68
2021/09/17 13:15:02;;;;;;;7.57;3.38;;;13.00;99.90;;;;;;4994243;28;20080;-69
2021/09/17 13:17:29;;;;;;;4.93;3.55;;;13.00;99.90;;;;;;4992765;28;20042;-68